sensor_id;sensor_type;location;lat;lon;timestamp;P1;durP1;ratioP1;P2;durP2;ratioP2
73642;SDS011;61938;48.652;9.292;2023-12-14T00:01:13;3.45;;;1.63;;
73642;SDS011;61938;48.652;9.292;2023-12-14T00:03:39;3.08;;;2.05;;
73642;SDS011;61938;48.652;9.292;2023-12-14T00:06:12;3.13;;;2.15;;
73642;SDS011;61938;48.652;9.292;2023-12-14T00:08:38;3.55;;;1.80;;
73642;SDS011;61938;48.652;9.292;2023-12-14T00:11:04;2.40;;;1.80;;
73642;SDS011;61938;48.652;9.292;2023-12-14T00:13:31;3.50;;;2.03;;
73642;SDS011;61938;48.652;9.292;2023-12-14T00:15:57;4.78;;;2.28;;
73642;SDS011;61938;48.652;9.292;2023-12-14T00:18:23;4.28;;;2.60;;
73642;SDS011;61938;48.652;9.292;2023-12-14T00:20:48;4.45;;;2.22;;
73642;SDS011;61938;48.652;9.292;2023-12-14T00:23:14;5.80;;;2.90;;
73642;SDS011;61938;48.652;9.292;2023-12-14T00:25:39;4.25;;;3.00;;
73642;SDS011;61938;48.652;9.292;2023-12-14T00:28:05;5.20;;;3.05;;
73642;SDS011;61938;48.652;9.292;2023-12-14T00:30:30;5.10;;;2.88;;
73642;SDS011;61938;48.652;9.292;2023-12-14T00:32:56;6.70;;;3.38;;
73642;SDS011;61938;48.652;9.292;2023-12-14T00:35:21;5.38;;;3.08;;
73642;SDS011;61938;48.652;9.292;2023-12-14T00:37:47;4.53;;;2.80;;
73642;SDS011;61938;48.652;9.292;2023-12-14T00:40:12;5.30;;;2.58;;
73642;SDS011;61938;48.652;9.292;2023-12-14T00:42:38;5.10;;;2.40;;
73642;SDS011;61938;48.652;9.292;2023-12-14T00:45:03;5.05;;;2.58;;
73642;SDS011;61938;48.652;9.292;2023-12-14T00:47:29;3.65;;;2.20;;
73642;SDS011;61938;48.652;9.292;2023-12-14T00:49:55;5.43;;;3.08;;
73642;SDS011;61938;48.652;9.292;2023-12-14T00:52:20;5.78;;;2.05;;
73642;SDS011;61938;48.652;9.292;2023-12-14T00:54:46;4.63;;;2.45;;
73642;SDS011;61938;48.652;9.292;2023-12-14T00:57:11;3.35;;;2.10;;
73642;SDS011;61938;48.652;9.292;2023-12-14T00:59:37;4.68;;;2.30;;
73642;SDS011;61938;48.652;9.292;2023-12-14T01:02:02;5.75;;;2.25;;
73642;SDS011;61938;48.652;9.292;2023-12-14T01:04:28;4.07;;;2.28;;
73642;SDS011;61938;48.652;9.292;2023-12-14T01:06:53;3.33;;;1.90;;
73642;SDS011;61938;48.652;9.292;2023-12-14T01:09:19;5.28;;;1.52;;
73642;SDS011;61938;48.652;9.292;2023-12-14T01:11:44;2.70;;;1.88;;
73642;SDS011;61938;48.652;9.292;2023-12-14T01:14:10;3.17;;;2.17;;
73642;SDS011;61938;48.652;9.292;2023-12-14T01:16:36;6.55;;;2.33;;
73642;SDS011;61938;48.652;9.292;2023-12-14T01:19:01;2.75;;;2.08;;
73642;SDS011;61938;48.652;9.292;2023-12-14T01:21:27;3.28;;;2.22;;
73642;SDS011;61938;48.652;9.292;2023-12-14T01:23:52;5.28;;;2.70;;
73642;SDS011;61938;48.652;9.292;2023-12-14T01:26:18;5.70;;;3.50;;
73642;SDS011;61938;48.652;9.292;2023-12-14T01:28:43;5.25;;;3.00;;
73642;SDS011;61938;48.652;9.292;2023-12-14T01:31:09;4.40;;;2.55;;
73642;SDS011;61938;48.652;9.292;2023-12-14T01:33:34;4.45;;;2.88;;
73642;SDS011;61938;48.652;9.292;2023-12-14T01:36:00;4.97;;;2.58;;
73642;SDS011;61938;48.652;9.292;2023-12-14T01:38:25;4.38;;;2.65;;
73642;SDS011;61938;48.652;9.292;2023-12-14T01:40:51;3.70;;;2.50;;
73642;SDS011;61938;48.652;9.292;2023-12-14T01:43:16;4.57;;;2.88;;
73642;SDS011;61938;48.652;9.292;2023-12-14T01:45:42;4.47;;;2.97;;
73642;SDS011;61938;48.652;9.292;2023-12-14T01:48:07;5.28;;;2.67;;
73642;SDS011;61938;48.652;9.292;2023-12-14T01:50:33;8.20;;;2.90;;
73642;SDS011;61938;48.652;9.292;2023-12-14T01:52:58;4.22;;;2.40;;
73642;SDS011;61938;48.652;9.292;2023-12-14T01:55:24;4.70;;;2.50;;
73642;SDS011;61938;48.652;9.292;2023-12-14T01:57:51;6.32;;;2.97;;
73642;SDS011;61938;48.652;9.292;2023-12-14T02:00:29;3.05;;;2.28;;
73642;SDS011;61938;48.652;9.292;2023-12-14T02:03:06;4.80;;;2.65;;
73642;SDS011;61938;48.652;9.292;2023-12-14T02:05:31;5.40;;;2.72;;
73642;SDS011;61938;48.652;9.292;2023-12-14T02:07:57;3.92;;;2.70;;
73642;SDS011;61938;48.652;9.292;2023-12-14T02:10:23;4.97;;;2.20;;
73642;SDS011;61938;48.652;9.292;2023-12-14T02:12:49;3.92;;;2.30;;
73642;SDS011;61938;48.652;9.292;2023-12-14T02:15:14;5.55;;;2.28;;
73642;SDS011;61938;48.652;9.292;2023-12-14T02:17:40;2.95;;;2.00;;
73642;SDS011;61938;48.652;9.292;2023-12-14T02:20:05;3.92;;;2.25;;
73642;SDS011;61938;48.652;9.292;2023-12-14T02:22:50;4.10;;;2.00;;
73642;SDS011;61938;48.652;9.292;2023-12-14T02:25:17;3.53;;;2.25;;
73642;SDS011;61938;48.652;9.292;2023-12-14T02:27:43;7.47;;;2.03;;
73642;SDS011;61938;48.652;9.292;2023-12-14T02:30:08;3.85;;;1.85;;
73642;SDS011;61938;48.652;9.292;2023-12-14T02:32:35;2.67;;;1.65;;
73642;SDS011;61938;48.652;9.292;2023-12-14T02:35:00;4.78;;;1.95;;
73642;SDS011;61938;48.652;9.292;2023-12-14T02:37:26;3.28;;;2.00;;
73642;SDS011;61938;48.652;9.292;2023-12-14T02:39:51;6.38;;;2.00;;
73642;SDS011;61938;48.652;9.292;2023-12-14T02:42:17;2.90;;;2.10;;
73642;SDS011;61938;48.652;9.292;2023-12-14T02:44:42;5.65;;;2.50;;
73642;SDS011;61938;48.652;9.292;2023-12-14T02:47:08;4.05;;;2.15;;
73642;SDS011;61938;48.652;9.292;2023-12-14T02:49:33;6.53;;;2.63;;
73642;SDS011;61938;48.652;9.292;2023-12-14T02:51:59;3.55;;;2.25;;
73642;SDS011;61938;48.652;9.292;2023-12-14T02:54:25;2.88;;;1.67;;
73642;SDS011;61938;48.652;9.292;2023-12-14T02:56:50;6.03;;;2.53;;
73642;SDS011;61938;48.652;9.292;2023-12-14T02:59:16;3.05;;;2.10;;
73642;SDS011;61938;48.652;9.292;2023-12-14T03:01:41;8.30;;;4.25;;
73642;SDS011;61938;48.652;9.292;2023-12-14T03:04:07;4.78;;;2.10;;
73642;SDS011;61938;48.652;9.292;2023-12-14T03:06:32;9.18;;;2.42;;
73642;SDS011;61938;48.652;9.292;2023-12-14T03:08:58;6.72;;;2.75;;
73642;SDS011;61938;48.652;9.292;2023-12-14T03:11:24;3.63;;;2.30;;
73642;SDS011;61938;48.652;9.292;2023-12-14T03:13:50;9.30;;;2.65;;
73642;SDS011;61938;48.652;9.292;2023-12-14T03:16:15;4.43;;;2.65;;
73642;SDS011;61938;48.652;9.292;2023-12-14T03:18:44;5.05;;;2.90;;
73642;SDS011;61938;48.652;9.292;2023-12-14T03:21:10;4.28;;;2.50;;
73642;SDS011;61938;48.652;9.292;2023-12-14T03:23:35;5.10;;;2.83;;
73642;SDS011;61938;48.652;9.292;2023-12-14T03:26:01;6.35;;;3.10;;
73642;SDS011;61938;48.652;9.292;2023-12-14T03:28:27;5.82;;;3.10;;
73642;SDS011;61938;48.652;9.292;2023-12-14T03:30:53;5.78;;;3.30;;
73642;SDS011;61938;48.652;9.292;2023-12-14T03:33:18;7.43;;;3.00;;
73642;SDS011;61938;48.652;9.292;2023-12-14T03:35:44;6.15;;;2.78;;
73642;SDS011;61938;48.652;9.292;2023-12-14T03:38:11;6.07;;;3.10;;
73642;SDS011;61938;48.652;9.292;2023-12-14T03:40:39;9.57;;;2.92;;
73642;SDS011;61938;48.652;9.292;2023-12-14T03:43:05;5.40;;;3.15;;
73642;SDS011;61938;48.652;9.292;2023-12-14T03:45:31;6.65;;;3.00;;
73642;SDS011;61938;48.652;9.292;2023-12-14T03:47:56;5.80;;;3.28;;
73642;SDS011;61938;48.652;9.292;2023-12-14T03:50:22;5.15;;;3.10;;
73642;SDS011;61938;48.652;9.292;2023-12-14T03:52:48;6.57;;;3.83;;
73642;SDS011;61938;48.652;9.292;2023-12-14T03:55:14;6.38;;;3.50;;
73642;SDS011;61938;48.652;9.292;2023-12-14T03:57:40;5.72;;;3.35;;
73642;SDS011;61938;48.652;9.292;2023-12-14T04:00:07;6.72;;;3.60;;
73642;SDS011;61938;48.652;9.292;2023-12-14T04:05:03;8.52;;;3.75;;
73642;SDS011;61938;48.652;9.292;2023-12-14T04:07:29;7.07;;;3.63;;
73642;SDS011;61938;48.652;9.292;2023-12-14T04:09:54;5.97;;;3.28;;
73642;SDS011;61938;48.652;9.292;2023-12-14T04:12:20;8.93;;;3.65;;
73642;SDS011;61938;48.652;9.292;2023-12-14T04:14:46;7.90;;;3.70;;
73642;SDS011;61938;48.652;9.292;2023-12-14T04:17:11;8.45;;;3.70;;
73642;SDS011;61938;48.652;9.292;2023-12-14T04:19:38;8.82;;;3.50;;
73642;SDS011;61938;48.652;9.292;2023-12-14T04:22:03;10.43;;;3.97;;
73642;SDS011;61938;48.652;9.292;2023-12-14T04:24:29;6.55;;;3.47;;
73642;SDS011;61938;48.652;9.292;2023-12-14T04:26:55;6.80;;;3.80;;
73642;SDS011;61938;48.652;9.292;2023-12-14T04:29:21;5.32;;;3.08;;
73642;SDS011;61938;48.652;9.292;2023-12-14T04:31:46;6.80;;;3.15;;
73642;SDS011;61938;48.652;9.292;2023-12-14T04:34:12;4.50;;;3.05;;
73642;SDS011;61938;48.652;9.292;2023-12-14T04:36:40;6.95;;;3.15;;
73642;SDS011;61938;48.652;9.292;2023-12-14T04:39:13;7.93;;;3.20;;
73642;SDS011;61938;48.652;9.292;2023-12-14T04:41:38;4.70;;;2.97;;
73642;SDS011;61938;48.652;9.292;2023-12-14T04:44:04;5.75;;;3.03;;
73642;SDS011;61938;48.652;9.292;2023-12-14T04:46:29;7.32;;;3.10;;
73642;SDS011;61938;48.652;9.292;2023-12-14T04:48:55;4.50;;;2.67;;
73642;SDS011;61938;48.652;9.292;2023-12-14T04:51:20;5.50;;;3.50;;
73642;SDS011;61938;48.652;9.292;2023-12-14T04:53:46;7.88;;;3.50;;
73642;SDS011;61938;48.652;9.292;2023-12-14T04:56:12;6.63;;;3.38;;
73642;SDS011;61938;48.652;9.292;2023-12-14T04:58:41;7.55;;;3.67;;
73642;SDS011;61938;48.652;9.292;2023-12-14T05:01:07;5.90;;;3.60;;
73642;SDS011;61938;48.652;9.292;2023-12-14T05:03:33;8.43;;;4.40;;
73642;SDS011;61938;48.652;9.292;2023-12-14T05:05:59;11.93;;;3.97;;
73642;SDS011;61938;48.652;9.292;2023-12-14T05:08:25;5.43;;;3.63;;
73642;SDS011;61938;48.652;9.292;2023-12-14T05:10:50;7.95;;;4.07;;
73642;SDS011;61938;48.652;9.292;2023-12-14T05:13:16;7.07;;;4.30;;
73642;SDS011;61938;48.652;9.292;2023-12-14T05:15:41;7.05;;;4.20;;
73642;SDS011;61938;48.652;9.292;2023-12-14T05:18:07;9.98;;;4.10;;
73642;SDS011;61938;48.652;9.292;2023-12-14T05:20:33;8.02;;;3.75;;
73642;SDS011;61938;48.652;9.292;2023-12-14T05:22:59;9.38;;;3.35;;
73642;SDS011;61938;48.652;9.292;2023-12-14T05:25:25;6.00;;;3.67;;
73642;SDS011;61938;48.652;9.292;2023-12-14T05:27:50;6.45;;;3.60;;
73642;SDS011;61938;48.652;9.292;2023-12-14T05:30:16;6.30;;;3.90;;
73642;SDS011;61938;48.652;9.292;2023-12-14T05:32:42;6.63;;;3.58;;
73642;SDS011;61938;48.652;9.292;2023-12-14T05:35:08;6.13;;;3.63;;
73642;SDS011;61938;48.652;9.292;2023-12-14T05:37:34;5.90;;;3.58;;
73642;SDS011;61938;48.652;9.292;2023-12-14T05:40:00;5.60;;;3.20;;
73642;SDS011;61938;48.652;9.292;2023-12-14T05:42:26;6.88;;;3.85;;
73642;SDS011;61938;48.652;9.292;2023-12-14T05:44:52;8.07;;;3.47;;
73642;SDS011;61938;48.652;9.292;2023-12-14T05:47:17;6.43;;;3.67;;
73642;SDS011;61938;48.652;9.292;2023-12-14T05:49:43;5.53;;;3.65;;
73642;SDS011;61938;48.652;9.292;2023-12-14T05:52:09;6.82;;;4.18;;
73642;SDS011;61938;48.652;9.292;2023-12-14T05:54:35;7.13;;;3.95;;
73642;SDS011;61938;48.652;9.292;2023-12-14T05:57:01;6.78;;;4.18;;
73642;SDS011;61938;48.652;9.292;2023-12-14T05:59:27;8.65;;;4.13;;
73642;SDS011;61938;48.652;9.292;2023-12-14T06:01:56;7.55;;;4.50;;
73642;SDS011;61938;48.652;9.292;2023-12-14T06:04:23;6.85;;;3.72;;
73642;SDS011;61938;48.652;9.292;2023-12-14T06:06:48;6.43;;;3.80;;
73642;SDS011;61938;48.652;9.292;2023-12-14T06:09:14;8.02;;;4.18;;
73642;SDS011;61938;48.652;9.292;2023-12-14T06:11:39;8.13;;;3.72;;
73642;SDS011;61938;48.652;9.292;2023-12-14T06:14:05;7.03;;;4.07;;
73642;SDS011;61938;48.652;9.292;2023-12-14T06:16:30;10.57;;;4.45;;
73642;SDS011;61938;48.652;9.292;2023-12-14T06:18:56;8.13;;;3.85;;
73642;SDS011;61938;48.652;9.292;2023-12-14T06:21:21;8.32;;;3.97;;
73642;SDS011;61938;48.652;9.292;2023-12-14T06:23:50;6.10;;;3.53;;
73642;SDS011;61938;48.652;9.292;2023-12-14T06:26:15;6.45;;;3.42;;
73642;SDS011;61938;48.652;9.292;2023-12-14T06:28:41;8.68;;;3.75;;
73642;SDS011;61938;48.652;9.292;2023-12-14T06:31:11;10.40;;;3.75;;
73642;SDS011;61938;48.652;9.292;2023-12-14T06:33:41;7.82;;;4.45;;
73642;SDS011;61938;48.652;9.292;2023-12-14T06:36:09;5.88;;;3.60;;
73642;SDS011;61938;48.652;9.292;2023-12-14T06:38:38;5.60;;;3.63;;
73642;SDS011;61938;48.652;9.292;2023-12-14T06:41:05;5.88;;;3.80;;
73642;SDS011;61938;48.652;9.292;2023-12-14T06:43:31;7.38;;;4.05;;
73642;SDS011;61938;48.652;9.292;2023-12-14T06:45:57;7.80;;;4.20;;
73642;SDS011;61938;48.652;9.292;2023-12-14T06:48:22;10.63;;;4.72;;
73642;SDS011;61938;48.652;9.292;2023-12-14T06:50:48;9.48;;;5.32;;
73642;SDS011;61938;48.652;9.292;2023-12-14T06:53:13;9.00;;;5.07;;
73642;SDS011;61938;48.652;9.292;2023-12-14T06:55:40;12.55;;;5.78;;
73642;SDS011;61938;48.652;9.292;2023-12-14T06:58:06;7.40;;;4.45;;
73642;SDS011;61938;48.652;9.292;2023-12-14T07:00:36;7.28;;;4.32;;
73642;SDS011;61938;48.652;9.292;2023-12-14T07:03:04;7.63;;;3.47;;
73642;SDS011;61938;48.652;9.292;2023-12-14T07:05:30;5.70;;;3.75;;
73642;SDS011;61938;48.652;9.292;2023-12-14T07:07:57;7.03;;;4.22;;
73642;SDS011;61938;48.652;9.292;2023-12-14T07:10:22;5.93;;;3.20;;
73642;SDS011;61938;48.652;9.292;2023-12-14T07:12:48;12.45;;;3.47;;
73642;SDS011;61938;48.652;9.292;2023-12-14T07:15:13;5.07;;;3.17;;
73642;SDS011;61938;48.652;9.292;2023-12-14T07:17:39;8.00;;;3.58;;
73642;SDS011;61938;48.652;9.292;2023-12-14T07:20:05;9.40;;;4.40;;
73642;SDS011;61938;48.652;9.292;2023-12-14T07:22:31;7.63;;;3.90;;
73642;SDS011;61938;48.652;9.292;2023-12-14T07:24:57;6.80;;;4.03;;
73642;SDS011;61938;48.652;9.292;2023-12-14T07:27:22;6.07;;;3.28;;
73642;SDS011;61938;48.652;9.292;2023-12-14T07:29:48;6.05;;;3.53;;
73642;SDS011;61938;48.652;9.292;2023-12-14T07:32:13;5.00;;;3.47;;
73642;SDS011;61938;48.652;9.292;2023-12-14T07:34:39;5.50;;;3.35;;
73642;SDS011;61938;48.652;9.292;2023-12-14T07:37:04;7.85;;;3.60;;
73642;SDS011;61938;48.652;9.292;2023-12-14T07:39:31;5.22;;;3.58;;
73642;SDS011;61938;48.652;9.292;2023-12-14T07:41:56;5.15;;;3.28;;
73642;SDS011;61938;48.652;9.292;2023-12-14T07:44:22;7.57;;;3.47;;
73642;SDS011;61938;48.652;9.292;2023-12-14T07:46:50;5.40;;;3.50;;
73642;SDS011;61938;48.652;9.292;2023-12-14T07:49:15;5.35;;;3.50;;
73642;SDS011;61938;48.652;9.292;2023-12-14T07:51:45;5.25;;;3.17;;
73642;SDS011;61938;48.652;9.292;2023-12-14T07:54:11;5.57;;;3.38;;
73642;SDS011;61938;48.652;9.292;2023-12-14T07:56:36;5.85;;;3.50;;
73642;SDS011;61938;48.652;9.292;2023-12-14T07:59:02;7.22;;;3.95;;
73642;SDS011;61938;48.652;9.292;2023-12-14T08:01:31;9.20;;;3.97;;
73642;SDS011;61938;48.652;9.292;2023-12-14T08:03:57;7.20;;;4.10;;
73642;SDS011;61938;48.652;9.292;2023-12-14T08:06:22;7.00;;;4.45;;
73642;SDS011;61938;48.652;9.292;2023-12-14T08:08:48;6.13;;;3.83;;
73642;SDS011;61938;48.652;9.292;2023-12-14T08:11:13;7.40;;;3.60;;
73642;SDS011;61938;48.652;9.292;2023-12-14T08:13:39;6.55;;;3.75;;
73642;SDS011;61938;48.652;9.292;2023-12-14T08:16:05;7.10;;;3.50;;
73642;SDS011;61938;48.652;9.292;2023-12-14T08:18:32;8.98;;;3.88;;
73642;SDS011;61938;48.652;9.292;2023-12-14T08:20:57;6.60;;;3.70;;
73642;SDS011;61938;48.652;9.292;2023-12-14T08:23:23;7.40;;;3.70;;
73642;SDS011;61938;48.652;9.292;2023-12-14T08:25:52;6.35;;;2.83;;
73642;SDS011;61938;48.652;9.292;2023-12-14T08:28:18;4.32;;;2.60;;
73642;SDS011;61938;48.652;9.292;2023-12-14T08:30:44;4.30;;;2.70;;
73642;SDS011;61938;48.652;9.292;2023-12-14T08:33:09;5.55;;;2.90;;
73642;SDS011;61938;48.652;9.292;2023-12-14T08:35:35;3.70;;;2.22;;
73642;SDS011;61938;48.652;9.292;2023-12-14T08:38:01;4.85;;;2.47;;
73642;SDS011;61938;48.652;9.292;2023-12-14T08:40:26;4.57;;;2.63;;
73642;SDS011;61938;48.652;9.292;2023-12-14T08:42:52;4.50;;;2.63;;
73642;SDS011;61938;48.652;9.292;2023-12-14T08:45:18;5.13;;;2.70;;
73642;SDS011;61938;48.652;9.292;2023-12-14T08:47:43;7.00;;;3.83;;
73642;SDS011;61938;48.652;9.292;2023-12-14T08:50:09;9.20;;;4.13;;
73642;SDS011;61938;48.652;9.292;2023-12-14T08:52:34;8.13;;;4.10;;
73642;SDS011;61938;48.652;9.292;2023-12-14T08:55:00;7.32;;;4.60;;
73642;SDS011;61938;48.652;9.292;2023-12-14T08:57:27;8.27;;;4.85;;
73642;SDS011;61938;48.652;9.292;2023-12-14T08:59:52;7.72;;;5.05;;
73642;SDS011;61938;48.652;9.292;2023-12-14T09:02:18;11.30;;;6.18;;
73642;SDS011;61938;48.652;9.292;2023-12-14T09:04:43;9.60;;;5.95;;
73642;SDS011;61938;48.652;9.292;2023-12-14T09:07:08;12.18;;;6.65;;
73642;SDS011;61938;48.652;9.292;2023-12-14T09:09:34;14.18;;;7.22;;
73642;SDS011;61938;48.652;9.292;2023-12-14T09:11:59;15.95;;;8.02;;
73642;SDS011;61938;48.652;9.292;2023-12-14T09:14:25;18.35;;;9.32;;
73642;SDS011;61938;48.652;9.292;2023-12-14T09:16:51;16.95;;;8.93;;
73642;SDS011;61938;48.652;9.292;2023-12-14T09:19:17;18.58;;;9.15;;
73642;SDS011;61938;48.652;9.292;2023-12-14T09:21:43;21.42;;;9.82;;
73642;SDS011;61938;48.652;9.292;2023-12-14T09:24:09;21.15;;;10.25;;
73642;SDS011;61938;48.652;9.292;2023-12-14T09:26:34;16.25;;;8.50;;
73642;SDS011;61938;48.652;9.292;2023-12-14T09:29:00;11.90;;;7.10;;
73642;SDS011;61938;48.652;9.292;2023-12-14T09:31:25;11.75;;;6.90;;
73642;SDS011;61938;48.652;9.292;2023-12-14T09:33:51;13.15;;;6.78;;
73642;SDS011;61938;48.652;9.292;2023-12-14T09:36:17;13.00;;;7.18;;
73642;SDS011;61938;48.652;9.292;2023-12-14T09:38:42;16.65;;;8.43;;
73642;SDS011;61938;48.652;9.292;2023-12-14T09:41:08;16.40;;;8.85;;
73642;SDS011;61938;48.652;9.292;2023-12-14T09:43:33;13.30;;;7.63;;
73642;SDS011;61938;48.652;9.292;2023-12-14T09:45:59;17.52;;;8.32;;
73642;SDS011;61938;48.652;9.292;2023-12-14T09:48:25;11.60;;;6.50;;
73642;SDS011;61938;48.652;9.292;2023-12-14T09:50:53;11.02;;;5.80;;
73642;SDS011;61938;48.652;9.292;2023-12-14T09:53:18;9.65;;;5.75;;
73642;SDS011;61938;48.652;9.292;2023-12-14T09:55:44;9.15;;;5.40;;
73642;SDS011;61938;48.652;9.292;2023-12-14T09:58:09;13.35;;;6.50;;
73642;SDS011;61938;48.652;9.292;2023-12-14T10:00:36;12.93;;;6.53;;
73642;SDS011;61938;48.652;9.292;2023-12-14T10:03:17;11.60;;;6.03;;
73642;SDS011;61938;48.652;9.292;2023-12-14T10:05:44;6.88;;;4.45;;
73642;SDS011;61938;48.652;9.292;2023-12-14T10:08:10;10.02;;;4.57;;
73642;SDS011;61938;48.652;9.292;2023-12-14T10:10:35;10.98;;;4.90;;
73642;SDS011;61938;48.652;9.292;2023-12-14T10:13:01;8.38;;;4.35;;
73642;SDS011;61938;48.652;9.292;2023-12-14T10:15:27;7.53;;;4.90;;
73642;SDS011;61938;48.652;9.292;2023-12-14T10:17:52;10.38;;;4.70;;
73642;SDS011;61938;48.652;9.292;2023-12-14T10:20:22;8.55;;;5.43;;
73642;SDS011;61938;48.652;9.292;2023-12-14T10:22:48;10.40;;;5.65;;
73642;SDS011;61938;48.652;9.292;2023-12-14T10:25:15;11.70;;;5.47;;
73642;SDS011;61938;48.652;9.292;2023-12-14T10:27:42;11.63;;;5.68;;
73642;SDS011;61938;48.652;9.292;2023-12-14T10:30:20;8.52;;;5.55;;
73642;SDS011;61938;48.652;9.292;2023-12-14T10:32:48;9.23;;;4.95;;
73642;SDS011;61938;48.652;9.292;2023-12-14T10:35:15;9.35;;;5.43;;
73642;SDS011;61938;48.652;9.292;2023-12-14T10:37:41;13.02;;;6.55;;
73642;SDS011;61938;48.652;9.292;2023-12-14T10:40:08;10.15;;;6.47;;
73642;SDS011;61938;48.652;9.292;2023-12-14T10:42:37;9.25;;;5.35;;
73642;SDS011;61938;48.652;9.292;2023-12-14T10:45:06;11.48;;;5.97;;
73642;SDS011;61938;48.652;9.292;2023-12-14T10:47:34;12.15;;;5.97;;
73642;SDS011;61938;48.652;9.292;2023-12-14T10:50:00;11.02;;;6.10;;
73642;SDS011;61938;48.652;9.292;2023-12-14T10:52:26;10.55;;;6.35;;
73642;SDS011;61938;48.652;9.292;2023-12-14T10:54:54;10.02;;;6.00;;
73642;SDS011;61938;48.652;9.292;2023-12-14T10:57:25;9.90;;;5.90;;
73642;SDS011;61938;48.652;9.292;2023-12-14T10:59:55;11.10;;;6.57;;
73642;SDS011;61938;48.652;9.292;2023-12-14T11:02:23;12.23;;;6.28;;
73642;SDS011;61938;48.652;9.292;2023-12-14T11:04:55;13.88;;;6.55;;
73642;SDS011;61938;48.652;9.292;2023-12-14T11:10:12;12.35;;;5.50;;
73642;SDS011;61938;48.652;9.292;2023-12-14T11:12:37;10.02;;;5.93;;
73642;SDS011;61938;48.652;9.292;2023-12-14T11:15:14;10.15;;;5.45;;
73642;SDS011;61938;48.652;9.292;2023-12-14T11:17:43;11.82;;;6.07;;
73642;SDS011;61938;48.652;9.292;2023-12-14T11:20:24;9.27;;;5.30;;
73642;SDS011;61938;48.652;9.292;2023-12-14T11:22:50;10.38;;;5.15;;
73642;SDS011;61938;48.652;9.292;2023-12-14T11:25:20;12.45;;;5.25;;
73642;SDS011;61938;48.652;9.292;2023-12-14T11:27:45;10.50;;;5.30;;
73642;SDS011;61938;48.652;9.292;2023-12-14T11:30:12;8.10;;;4.47;;
73642;SDS011;61938;48.652;9.292;2023-12-14T11:32:37;7.22;;;3.83;;
73642;SDS011;61938;48.652;9.292;2023-12-14T11:35:04;7.40;;;3.22;;
73642;SDS011;61938;48.652;9.292;2023-12-14T11:37:33;4.90;;;2.92;;
73642;SDS011;61938;48.652;9.292;2023-12-14T11:40:00;7.20;;;3.38;;
73642;SDS011;61938;48.652;9.292;2023-12-14T11:42:25;6.80;;;3.20;;
73642;SDS011;61938;48.652;9.292;2023-12-14T11:44:51;11.68;;;4.07;;
73642;SDS011;61938;48.652;9.292;2023-12-14T11:47:16;9.23;;;4.70;;
73642;SDS011;61938;48.652;9.292;2023-12-14T11:49:42;8.40;;;4.70;;
73642;SDS011;61938;48.652;9.292;2023-12-14T11:52:08;8.23;;;5.22;;
73642;SDS011;61938;48.652;9.292;2023-12-14T11:54:34;9.25;;;5.32;;
73642;SDS011;61938;48.652;9.292;2023-12-14T11:57:00;7.03;;;4.93;;
73642;SDS011;61938;48.652;9.292;2023-12-14T11:59:27;7.53;;;3.95;;
73642;SDS011;61938;48.652;9.292;2023-12-14T12:01:57;7.35;;;4.28;;
73642;SDS011;61938;48.652;9.292;2023-12-14T12:04:24;14.13;;;5.73;;
73642;SDS011;61938;48.652;9.292;2023-12-14T12:06:58;9.88;;;5.40;;
73642;SDS011;61938;48.652;9.292;2023-12-14T12:09:38;7.07;;;4.35;;
73642;SDS011;61938;48.652;9.292;2023-12-14T12:12:09;7.55;;;4.80;;
73642;SDS011;61938;48.652;9.292;2023-12-14T12:14:36;6.70;;;4.65;;
73642;SDS011;61938;48.652;9.292;2023-12-14T12:17:03;15.40;;;5.72;;
73642;SDS011;61938;48.652;9.292;2023-12-14T12:19:33;9.93;;;5.05;;
73642;SDS011;61938;48.652;9.292;2023-12-14T12:22:00;11.85;;;6.03;;
73642;SDS011;61938;48.652;9.292;2023-12-14T12:24:27;9.73;;;5.15;;
73642;SDS011;61938;48.652;9.292;2023-12-14T12:26:53;8.35;;;5.07;;
73642;SDS011;61938;48.652;9.292;2023-12-14T12:29:18;6.82;;;4.63;;
73642;SDS011;61938;48.652;9.292;2023-12-14T12:31:44;10.13;;;4.55;;
73642;SDS011;61938;48.652;9.292;2023-12-14T12:34:10;9.18;;;4.93;;
73642;SDS011;61938;48.652;9.292;2023-12-14T12:36:37;6.97;;;4.13;;
73642;SDS011;61938;48.652;9.292;2023-12-14T12:39:03;6.07;;;3.63;;
73642;SDS011;61938;48.652;9.292;2023-12-14T12:41:31;8.27;;;3.83;;
73642;SDS011;61938;48.652;9.292;2023-12-14T12:43:57;5.20;;;2.90;;
73642;SDS011;61938;48.652;9.292;2023-12-14T12:46:24;4.85;;;2.53;;
73642;SDS011;61938;48.652;9.292;2023-12-14T12:48:49;7.38;;;2.30;;
73642;SDS011;61938;48.652;9.292;2023-12-14T12:51:16;3.33;;;2.38;;
73642;SDS011;61938;48.652;9.292;2023-12-14T12:53:42;5.72;;;2.47;;
73642;SDS011;61938;48.652;9.292;2023-12-14T12:56:07;6.93;;;3.13;;
73642;SDS011;61938;48.652;9.292;2023-12-14T12:58:33;5.53;;;3.28;;
73642;SDS011;61938;48.652;9.292;2023-12-14T13:00:58;6.57;;;3.47;;
73642;SDS011;61938;48.652;9.292;2023-12-14T13:03:24;5.95;;;3.25;;
73642;SDS011;61938;48.652;9.292;2023-12-14T13:05:49;7.40;;;3.75;;
73642;SDS011;61938;48.652;9.292;2023-12-14T13:08:15;8.80;;;3.13;;
73642;SDS011;61938;48.652;9.292;2023-12-14T13:10:40;5.85;;;3.08;;
73642;SDS011;61938;48.652;9.292;2023-12-14T13:13:06;7.60;;;2.63;;
73642;SDS011;61938;48.652;9.292;2023-12-14T13:15:37;7.22;;;3.03;;
73642;SDS011;61938;48.652;9.292;2023-12-14T13:18:04;6.00;;;3.58;;
73642;SDS011;61938;48.652;9.292;2023-12-14T13:20:29;4.82;;;2.75;;
73642;SDS011;61938;48.652;9.292;2023-12-14T13:22:55;3.40;;;2.60;;
73642;SDS011;61938;48.652;9.292;2023-12-14T13:25:20;6.72;;;2.63;;
73642;SDS011;61938;48.652;9.292;2023-12-14T13:27:48;4.88;;;2.70;;
73642;SDS011;61938;48.652;9.292;2023-12-14T13:30:13;7.45;;;3.42;;
73642;SDS011;61938;48.652;9.292;2023-12-14T13:32:42;7.63;;;4.00;;
73642;SDS011;61938;48.652;9.292;2023-12-14T13:35:07;10.63;;;4.90;;
73642;SDS011;61938;48.652;9.292;2023-12-14T13:37:34;12.00;;;5.95;;
73642;SDS011;61938;48.652;9.292;2023-12-14T13:39:59;13.00;;;6.03;;
73642;SDS011;61938;48.652;9.292;2023-12-14T13:42:25;7.75;;;3.40;;
73642;SDS011;61938;48.652;9.292;2023-12-14T13:44:51;9.48;;;4.00;;
73642;SDS011;61938;48.652;9.292;2023-12-14T13:47:16;11.50;;;5.30;;
73642;SDS011;61938;48.652;9.292;2023-12-14T13:49:42;7.70;;;4.00;;
73642;SDS011;61938;48.652;9.292;2023-12-14T13:52:07;10.15;;;4.13;;
73642;SDS011;61938;48.652;9.292;2023-12-14T13:54:34;11.02;;;5.05;;
73642;SDS011;61938;48.652;9.292;2023-12-14T13:57:01;10.63;;;5.38;;
73642;SDS011;61938;48.652;9.292;2023-12-14T13:59:27;9.85;;;4.68;;
73642;SDS011;61938;48.652;9.292;2023-12-14T14:01:52;15.80;;;7.53;;
73642;SDS011;61938;48.652;9.292;2023-12-14T14:04:18;13.02;;;6.18;;
73642;SDS011;61938;48.652;9.292;2023-12-14T14:06:44;10.38;;;5.20;;
73642;SDS011;61938;48.652;9.292;2023-12-14T14:09:09;8.13;;;3.67;;
73642;SDS011;61938;48.652;9.292;2023-12-14T14:11:36;7.80;;;3.35;;
73642;SDS011;61938;48.652;9.292;2023-12-14T14:14:01;10.60;;;5.65;;
73642;SDS011;61938;48.652;9.292;2023-12-14T14:16:28;15.25;;;6.60;;
73642;SDS011;61938;48.652;9.292;2023-12-14T14:18:54;9.07;;;4.63;;
73642;SDS011;61938;48.652;9.292;2023-12-14T14:21:20;7.68;;;4.32;;
73642;SDS011;61938;48.652;9.292;2023-12-14T14:23:45;11.82;;;5.43;;
73642;SDS011;61938;48.652;9.292;2023-12-14T14:26:11;9.18;;;4.88;;
73642;SDS011;61938;48.652;9.292;2023-12-14T14:28:36;13.35;;;7.03;;
73642;SDS011;61938;48.652;9.292;2023-12-14T14:31:02;12.45;;;7.15;;
73642;SDS011;61938;48.652;9.292;2023-12-14T14:33:28;13.43;;;5.97;;
73642;SDS011;61938;48.652;9.292;2023-12-14T14:35:53;11.75;;;7.05;;
73642;SDS011;61938;48.652;9.292;2023-12-14T14:38:19;10.82;;;5.68;;
73642;SDS011;61938;48.652;9.292;2023-12-14T14:40:44;6.90;;;3.90;;
73642;SDS011;61938;48.652;9.292;2023-12-14T14:43:10;8.60;;;4.68;;
73642;SDS011;61938;48.652;9.292;2023-12-14T14:45:36;13.50;;;7.45;;